Time;durP1;ratioP1;P1;durP2;ratioP2;P2;SDS_P1;SDS_P2;PMS_P1;PMS_P2;Temp;Humidity;BMP_temperature;BMP_pressure;BME280_temperature;BME280_humidity;BME280_pressure;Samples;Min_cycle;Max_cycle;Signal;HPM_P1;HPM_P2
2024/03/15 00:00:26;;;;;;;7.35;3.60;;;10.50;87.70;;;;;;5038341;28;20021;-64
2024/03/15 00:02:52;;;;;;;5.68;3.33;;;10.40;88.10;;;;;;5033042;28;20057;-64
2024/03/15 00:05:20;;;;;;;6.47;3.70;;;10.40;88.10;;;;;;5043319;28;20109;-65
2024/03/15 00:07:46;;;;;;;6.03;3.25;;;10.40;88.10;;;;;;5035920;28;20362;-65
2024/03/15 00:10:11;;;;;;;5.68;3.38;;;10.40;88.50;;;;;;5032604;28;20025;-64
2024/03/15 00:12:37;;;;;;;5.78;3.30;;;10.40;88.40;;;;;;5033096;28;20037;-64
2024/03/15 00:15:03;;;;;;;6.07;3.20;;;10.50;88.20;;;;;;5032205;28;20029;-64
2024/03/15 00:17:28;;;;;;;5.40;3.13;;;10.40;88.30;;;;;;5040500;28;20081;-64
2024/03/15 00:19:54;;;;;;;6.75;3.25;;;10.50;88.10;;;;;;5037522;28;20040;-64
2024/03/15 00:22:19;;;;;;;6.45;3.35;;;10.40;88.20;;;;;;5038536;28;20043;-65
2024/03/15 00:24:44;;;;;;;6.57;3.58;;;10.50;88.10;;;;;;5037284;28;20033;-65
2024/03/15 00:27:12;;;;;;;6.47;3.97;;;10.50;88.10;;;;;;5036776;28;20066;-64
2024/03/15 00:29:38;;;;;;;6.72;3.75;;;10.60;88.00;;;;;;5036619;28;20075;-64
2024/03/15 00:32:06;;;;;;;6.30;3.40;;;10.60;87.70;;;;;;5035110;28;20036;-64
2024/03/15 00:34:33;;;;;;;6.93;3.38;;;10.60;87.70;;;;;;5031306;28;20151;-65
2024/03/15 00:36:59;;;;;;;5.50;3.30;;;10.60;87.70;;;;;;5041039;28;20087;-65
2024/03/15 00:39:24;;;;;;;5.70;3.03;;;10.60;87.70;;;;;;5027505;28;20097;-64
2024/03/15 00:41:50;;;;;;;6.15;3.35;;;10.70;87.80;;;;;;5030053;28;20053;-65
2024/03/15 00:44:15;;;;;;;5.45;3.20;;;10.80;87.40;;;;;;5034641;28;20080;-64
2024/03/15 00:46:41;;;;;;;7.10;3.38;;;10.70;87.50;;;;;;5032042;28;20422;-66
2024/03/15 00:49:06;;;;;;;6.00;3.30;;;10.70;87.20;;;;;;5031060;28;20022;-64
2024/03/15 00:51:32;;;;;;;5.95;3.00;;;10.80;87.10;;;;;;5034523;28;20032;-64
2024/03/15 00:53:58;;;;;;;4.75;3.03;;;10.80;87.10;;;;;;5039988;28;20059;-64
2024/03/15 00:56:23;;;;;;;6.90;3.42;;;10.80;87.00;;;;;;5038037;28;20059;-66
2024/03/15 00:58:50;;;;;;;6.03;3.53;;;10.80;87.20;;;;;;5036479;28;20068;-65
2024/03/15 01:01:15;;;;;;;4.68;2.97;;;10.70;87.40;;;;;;5035230;28;20477;-65
2024/03/15 01:03:41;;;;;;;7.90;3.42;;;10.70;87.50;;;;;;5033500;28;20045;-64
2024/03/15 01:06:07;;;;;;;5.20;3.08;;;10.60;87.70;;;;;;5029092;28;20033;-64
2024/03/15 01:08:33;;;;;;;5.90;3.22;;;10.50;87.60;;;;;;5029980;28;20373;-65
2024/03/15 01:10:58;;;;;;;5.57;3.25;;;10.40;87.80;;;;;;5028875;28;20068;-64
2024/03/15 01:13:24;;;;;;;6.13;3.30;;;10.40;88.10;;;;;;5038274;28;20197;-65
2024/03/15 01:15:50;;;;;;;4.45;3.20;;;10.30;88.30;;;;;;5040961;28;20044;-64
2024/03/15 01:18:18;;;;;;;6.10;3.13;;;10.20;88.40;;;;;;5034904;28;20043;-65
2024/03/15 01:20:44;;;;;;;6.38;3.33;;;10.10;88.80;;;;;;5033489;28;20037;-65
2024/03/15 01:23:10;;;;;;;5.13;3.17;;;10.10;88.90;;;;;;5039234;28;20441;-64
2024/03/15 01:25:35;;;;;;;5.65;3.20;;;10.10;89.20;;;;;;5037071;28;20034;-65
2024/03/15 01:28:08;;;;;;;5.18;3.10;;;10.00;89.30;;;;;;5037940;28;20139;-64
2024/03/15 01:30:34;;;;;;;6.53;3.30;;;10.00;89.20;;;;;;5036691;28;20037;-64
2024/03/15 01:32:59;;;;;;;7.55;4.03;;;10.00;89.50;;;;;;5039110;28;20025;-64
2024/03/15 01:35:32;;;;;;;8.38;3.88;;;10.00;89.70;;;;;;5030561;28;20040;-64
2024/03/15 01:38:02;;;;;;;7.57;3.50;;;9.90;89.50;;;;;;5039063;28;20025;-64
2024/03/15 01:40:31;;;;;;;7.47;3.67;;;9.90;89.80;;;;;;5037851;28;20508;-64
2024/03/15 01:42:57;;;;;;;8.25;4.22;;;9.90;89.90;;;;;;5044663;28;20139;-64
2024/03/15 01:45:23;;;;;;;7.45;3.58;;;9.90;89.70;;;;;;5034016;28;20069;-64
2024/03/15 01:47:49;;;;;;;6.82;4.05;;;10.00;89.70;;;;;;5038301;28;20033;-65
2024/03/15 01:50:15;;;;;;;6.10;3.08;;;10.00;89.50;;;;;;5038399;28;20108;-65
2024/03/15 01:52:44;;;;;;;7.15;3.63;;;9.90;89.70;;;;;;5032886;28;20029;-64
2024/03/15 01:55:10;;;;;;;6.55;3.78;;;9.80;89.90;;;;;;5030036;28;22023;-64
2024/03/15 01:57:37;;;;;;;7.47;3.83;;;9.80;90.30;;;;;;5035167;28;20216;-65
2024/03/15 02:00:06;;;;;;;7.25;3.15;;;9.80;90.20;;;;;;5034912;28;20040;-65
2024/03/15 02:02:33;;;;;;;7.15;3.88;;;9.90;90.10;;;;;;5035812;28;20017;-65
2024/03/15 02:04:58;;;;;;;8.23;3.78;;;9.80;89.90;;;;;;5041181;28;20097;-65
2024/03/15 02:07:27;;;;;;;7.53;3.28;;;9.90;90.00;;;;;;5034308;28;20138;-65
2024/03/15 02:09:56;;;;;;;7.75;3.53;;;9.80;90.30;;;;;;5034205;28;20452;-65
2024/03/15 02:12:23;;;;;;;7.57;4.03;;;9.70;90.20;;;;;;5031988;28;20033;-65
2024/03/15 02:14:49;;;;;;;7.72;3.70;;;9.70;90.40;;;;;;5035950;28;20202;-65
2024/03/15 02:17:18;;;;;;;6.95;3.53;;;9.80;90.20;;;;;;5034996;28;20128;-64
2024/03/15 02:19:44;;;;;;;7.68;4.18;;;9.80;90.50;;;;;;5041546;28;20059;-64
2024/03/15 02:22:13;;;;;;;7.18;4.22;;;9.70;90.70;;;;;;5033466;28;20109;-64
2024/03/15 02:24:40;;;;;;;7.57;4.13;;;9.80;90.60;;;;;;5026428;28;20037;-65
2024/03/15 02:27:06;;;;;;;7.38;4.05;;;9.70;90.60;;;;;;5037114;28;20417;-64
2024/03/15 02:29:32;;;;;;;8.52;4.32;;;9.70;90.90;;;;;;5050713;28;20036;-64
2024/03/15 02:31:58;;;;;;;8.85;4.30;;;9.70;90.70;;;;;;5037168;28;20036;-64
2024/03/15 02:34:23;;;;;;;7.15;3.90;;;9.60;90.70;;;;;;5034211;28;20109;-64
2024/03/15 02:36:49;;;;;;;7.20;4.15;;;9.60;90.90;;;;;;5037134;28;20022;-64
2024/03/15 02:39:16;;;;;;;8.20;4.68;;;9.60;90.80;;;;;;5027961;28;20085;-65
2024/03/15 02:41:45;;;;;;;8.93;4.45;;;9.60;91.00;;;;;;5037894;28;20073;-64
2024/03/15 02:44:12;;;;;;;5.80;3.70;;;9.60;91.30;;;;;;5039029;28;20036;-65
2024/03/15 02:46:37;;;;;;;5.68;3.28;;;9.70;91.30;;;;;;5042011;28;20280;-64
2024/03/15 02:49:06;;;;;;;7.57;4.13;;;9.70;90.90;;;;;;5037857;28;20037;-68
2024/03/15 02:51:31;;;;;;;9.63;4.82;;;9.60;91.00;;;;;;5040997;28;20107;-65
2024/03/15 02:53:57;;;;;;;7.13;3.97;;;9.70;91.00;;;;;;5029232;28;20537;-65
2024/03/15 02:56:22;;;;;;;7.35;4.25;;;9.60;91.30;;;;;;5027530;28;20041;-64
2024/03/15 02:58:48;;;;;;;6.72;4.07;;;9.70;91.00;;;;;;5036488;28;20965;-64
2024/03/15 03:01:14;;;;;;;7.68;4.57;;;9.60;91.30;;;;;;5029720;28;20394;-64
2024/03/15 03:03:41;;;;;;;7.82;4.22;;;9.60;91.40;;;;;;5040286;28;20094;-64
2024/03/15 03:06:06;;;;;;;7.43;3.92;;;9.70;91.20;;;;;;5035308;28;20041;-65
2024/03/15 03:08:34;;;;;;;9.35;4.72;;;9.70;91.10;;;;;;5038855;28;20044;-64
2024/03/15 03:10:59;;;;;;;8.65;5.38;;;9.80;91.10;;;;;;5030639;28;20021;-64
2024/03/15 03:13:25;;;;;;;8.25;4.00;;;9.70;91.20;;;;;;5036891;28;20017;-64
2024/03/15 03:15:50;;;;;;;6.80;4.00;;;9.60;91.20;;;;;;5029286;28;20074;-65
2024/03/15 03:18:16;;;;;;;7.82;4.65;;;9.60;91.50;;;;;;5036292;28;20132;-65
2024/03/15 03:20:42;;;;;;;7.70;4.05;;;9.60;91.70;;;;;;5037233;28;20401;-65
2024/03/15 03:23:08;;;;;;;8.50;4.47;;;9.60;91.60;;;;;;5037151;28;20047;-64
2024/03/15 03:25:34;;;;;;;8.57;4.40;;;9.60;91.60;;;;;;5034661;28;20073;-64
2024/03/15 03:28:00;;;;;;;9.65;4.43;;;9.80;91.30;;;;;;5035093;28;20060;-66
2024/03/15 03:30:25;;;;;;;7.13;3.67;;;9.70;91.10;;;;;;5034462;28;20080;-65
2024/03/15 03:32:51;;;;;;;10.95;4.38;;;9.70;91.20;;;;;;5036411;28;20513;-67
2024/03/15 03:35:17;;;;;;;7.70;4.15;;;9.80;91.20;;;;;;5031158;28;20116;-65
2024/03/15 03:37:43;;;;;;;7.20;4.22;;;9.80;91.10;;;;;;5034533;28;20103;-65
2024/03/15 03:40:14;;;;;;;8.23;4.85;;;9.80;91.10;;;;;;5036758;28;20065;-64
2024/03/15 03:42:43;;;;;;;8.15;4.47;;;9.80;91.10;;;;;;5039388;28;20057;-64
2024/03/15 03:45:19;;;;;;;7.50;4.22;;;9.80;91.10;;;;;;5032213;28;20430;-64
2024/03/15 03:47:49;;;;;;;7.55;4.28;;;9.80;91.10;;;;;;5038250;28;20025;-65
2024/03/15 03:50:15;;;;;;;8.68;4.60;;;9.90;91.00;;;;;;5026729;28;20030;-65
2024/03/15 03:52:40;;;;;;;7.35;4.13;;;10.00;91.10;;;;;;5030462;28;20652;-64
2024/03/15 03:55:07;;;;;;;7.28;4.15;;;10.10;90.60;;;;;;5035383;28;20044;-64
2024/03/15 03:57:39;;;;;;;7.95;4.07;;;10.00;90.80;;;;;;5039054;28;20033;-64
2024/03/15 04:00:05;;;;;;;9.50;4.50;;;10.00;90.80;;;;;;5033396;28;20041;-64
2024/03/15 04:02:31;;;;;;;8.38;4.60;;;10.00;91.00;;;;;;5034398;28;20030;-66
2024/03/15 04:04:57;;;;;;;8.80;3.67;;;9.90;91.00;;;;;;5034200;28;20052;-65
2024/03/15 04:07:29;;;;;;;8.23;4.75;;;10.10;90.90;;;;;;5039217;28;20114;-65
2024/03/15 04:09:55;;;;;;;7.03;4.28;;;10.10;90.80;;;;;;5026071;28;20034;-64
2024/03/15 04:12:21;;;;;;;9.25;4.28;;;10.00;90.80;;;;;;5034842;28;20500;-64
2024/03/15 04:14:49;;;;;;;9.02;4.43;;;10.00;90.80;;;;;;5035236;28;20049;-65
2024/03/15 04:17:15;;;;;;;8.55;4.20;;;10.00;91.30;;;;;;5035980;28;20108;-63
2024/03/15 04:19:43;;;;;;;7.68;4.10;;;9.90;91.10;;;;;;5037182;28;20036;-64
2024/03/15 04:22:10;;;;;;;9.07;4.25;;;9.80;91.30;;;;;;5036304;28;20071;-63
2024/03/15 04:24:36;;;;;;;6.55;3.88;;;9.70;91.40;;;;;;5031380;28;20124;-63
2024/03/15 04:27:03;;;;;;;8.75;4.63;;;9.70;91.70;;;;;;5032012;28;20350;-63
2024/03/15 04:29:30;;;;;;;7.95;4.35;;;9.60;91.80;;;;;;5042233;28;20374;-64
2024/03/15 04:31:57;;;;;;;7.47;4.57;;;9.60;92.20;;;;;;5040213;28;20556;-64
2024/03/15 04:34:24;;;;;;;7.82;4.78;;;9.50;92.10;;;;;;5037862;28;20029;-65
2024/03/15 04:36:50;;;;;;;8.85;4.20;;;9.50;92.50;;;;;;5034187;28;20051;-64
2024/03/15 04:39:17;;;;;;;9.05;4.43;;;9.50;92.50;;;;;;5032390;28;20033;-64
2024/03/15 04:41:42;;;;;;;7.82;4.38;;;9.40;92.50;;;;;;5035436;28;20056;-64
2024/03/15 04:44:08;;;;;;;8.25;4.18;;;9.40;92.70;;;;;;5036476;28;20029;-63
2024/03/15 04:46:33;;;;;;;6.50;3.65;;;9.30;92.70;;;;;;5036957;28;20037;-63
2024/03/15 04:48:59;;;;;;;8.48;4.43;;;9.30;93.20;;;;;;5039407;28;20219;-64
2024/03/15 04:51:24;;;;;;;8.77;4.78;;;9.20;93.10;;;;;;5037312;28;20164;-65
2024/03/15 04:53:50;;;;;;;9.15;5.07;;;9.10;93.20;;;;;;5032002;28;20037;-65
2024/03/15 04:56:15;;;;;;;7.15;3.97;;;9.10;93.50;;;;;;5035700;28;20029;-64
2024/03/15 04:58:41;;;;;;;10.20;4.72;;;9.10;93.60;;;;;;5037535;28;20037;-65
2024/03/15 05:01:06;;;;;;;7.78;4.88;;;9.10;93.70;;;;;;5036671;28;20047;-65
2024/03/15 05:03:32;;;;;;;9.15;4.75;;;9.10;93.60;;;;;;5035253;28;20160;-64
2024/03/15 05:05:58;;;;;;;8.55;4.75;;;9.00;93.70;;;;;;5035404;28;20029;-64
2024/03/15 05:08:24;;;;;;;8.30;4.57;;;9.10;93.60;;;;;;5040907;28;20287;-64
2024/03/15 05:10:49;;;;;;;9.63;5.03;;;9.10;93.90;;;;;;5031937;28;20029;-65
2024/03/15 05:13:14;;;;;;;8.88;4.85;;;9.10;93.80;;;;;;5034280;28;20373;-64
2024/03/15 05:15:40;;;;;;;8.25;4.82;;;9.20;93.80;;;;;;5046395;28;20097;-64
2024/03/15 05:18:07;;;;;;;6.43;4.07;;;9.30;93.90;;;;;;5041597;28;20393;-64
2024/03/15 05:20:33;;;;;;;8.80;4.65;;;9.30;93.70;;;;;;5040259;28;20056;-64
2024/03/15 05:22:59;;;;;;;9.27;5.07;;;9.40;93.50;;;;;;5040184;28;20369;-64
2024/03/15 05:25:24;;;;;;;8.55;4.82;;;9.40;93.40;;;;;;5037963;28;20102;-64
2024/03/15 05:27:50;;;;;;;8.80;4.32;;;9.50;93.50;;;;;;5035572;28;20091;-64
2024/03/15 05:30:17;;;;;;;9.52;5.05;;;9.50;93.30;;;;;;5039518;28;20037;-64
2024/03/15 05:32:43;;;;;;;15.40;5.22;;;9.60;93.20;;;;;;5033270;28;20112;-63
2024/03/15 05:35:09;;;;;;;7.13;3.95;;;9.60;93.10;;;;;;5033646;28;20033;-63
2024/03/15 05:37:35;;;;;;;8.07;4.75;;;9.60;93.00;;;;;;5037564;28;20492;-64
2024/03/15 05:40:01;;;;;;;7.97;4.68;;;9.60;93.00;;;;;;5028639;28;20118;-64
2024/03/15 05:42:28;;;;;;;7.68;4.53;;;9.60;93.00;;;;;;5027590;28;20045;-64
2024/03/15 05:44:53;;;;;;;8.48;4.63;;;9.60;92.90;;;;;;5033479;28;20032;-63
2024/03/15 05:47:18;;;;;;;9.70;4.60;;;9.70;92.80;;;;;;5033906;28;20033;-63
2024/03/15 05:49:45;;;;;;;8.20;3.83;;;9.70;92.80;;;;;;5037027;28;20037;-63
2024/03/15 05:52:10;;;;;;;6.88;3.97;;;9.70;92.70;;;;;;5034899;28;20070;-63
2024/03/15 05:54:37;;;;;;;8.80;4.55;;;9.80;92.60;;;;;;5029939;28;20442;-63
2024/03/15 05:57:04;;;;;;;7.13;4.05;;;9.80;92.40;;;;;;5046385;28;20120;-63
2024/03/15 05:59:30;;;;;;;8.25;4.25;;;9.90;92.30;;;;;;5038505;28;20382;-63
2024/03/15 06:01:56;;;;;;;10.00;4.57;;;10.00;92.30;;;;;;5038612;28;20496;-63
2024/03/15 06:04:22;;;;;;;7.47;3.97;;;9.90;92.10;;;;;;5034654;28;20140;-64
2024/03/15 06:06:47;;;;;;;6.60;4.07;;;10.00;92.10;;;;;;5036900;28;20045;-63
2024/03/15 06:09:13;;;;;;;7.82;4.13;;;10.00;91.90;;;;;;5035898;28;20437;-63
2024/03/15 06:11:38;;;;;;;7.75;3.80;;;10.10;91.90;;;;;;5030652;28;20124;-64
2024/03/15 06:14:04;;;;;;;7.22;4.03;;;10.10;91.80;;;;;;5034603;28;20424;-63
2024/03/15 06:16:31;;;;;;;8.00;3.95;;;10.10;91.80;;;;;;5040868;28;20034;-62
2024/03/15 06:18:57;;;;;;;8.55;4.00;;;10.10;91.60;;;;;;5036639;28;20047;-63
2024/03/15 06:21:23;;;;;;;7.45;3.92;;;10.10;91.60;;;;;;5032103;28;20030;-63
2024/03/15 06:23:48;;;;;;;6.05;3.50;;;10.10;91.60;;;;;;5030271;28;20073;-63
2024/03/15 06:26:14;;;;;;;6.28;3.50;;;10.10;91.70;;;;;;5028469;28;20029;-63
2024/03/15 06:28:39;;;;;;;6.55;3.65;;;10.10;91.50;;;;;;5036670;28;20140;-64
2024/03/15 06:31:05;;;;;;;7.20;4.05;;;10.10;91.60;;;;;;5035492;28;20109;-63
2024/03/15 06:33:33;;;;;;;6.93;4.05;;;10.10;91.60;;;;;;5036194;28;20056;-63
2024/03/15 06:36:03;;;;;;;6.78;3.60;;;10.20;91.50;;;;;;5034793;28;20103;-63
2024/03/15 06:41:13;;;;;;;6.40;3.45;;;10.20;91.50;;;;;;5038972;28;20079;-63
2024/03/15 06:43:42;;;;;;;6.63;3.63;;;10.20;91.50;;;;;;5037459;28;20071;-64
2024/03/15 06:46:09;;;;;;;5.90;3.42;;;10.30;91.60;;;;;;5038772;28;20084;-62
2024/03/15 06:48:44;;;;;;;6.20;3.53;;;10.30;91.50;;;;;;5039284;28;20419;-63
2024/03/15 06:53:55;;;;;;;7.70;4.13;;;10.40;91.40;;;;;;5033611;28;20039;-63
2024/03/15 06:56:21;;;;;;;8.80;3.70;;;10.40;91.30;;;;;;5042705;28;20044;-64
2024/03/15 06:58:46;;;;;;;6.72;3.47;;;10.50;91.10;;;;;;5030128;28;20083;-63
2024/03/15 07:01:12;;;;;;;8.32;3.58;;;10.50;91.10;;;;;;5035287;28;20041;-64
2024/03/15 07:03:38;;;;;;;8.23;3.97;;;10.50;91.00;;;;;;5040317;28;20184;-63
2024/03/15 07:06:04;;;;;;;6.70;3.70;;;10.60;91.00;;;;;;5034893;28;20041;-63
2024/03/15 07:08:29;;;;;;;6.43;3.70;;;10.60;91.00;;;;;;5038016;28;20092;-63
2024/03/15 07:10:55;;;;;;;7.10;3.83;;;10.60;90.80;;;;;;5027360;28;20222;-63
2024/03/15 07:13:21;;;;;;;6.75;3.72;;;10.70;90.80;;;;;;5032124;28;20116;-63
2024/03/15 07:15:46;;;;;;;7.78;3.35;;;10.80;90.30;;;;;;5042110;28;20029;-64
2024/03/15 07:18:12;;;;;;;6.15;3.42;;;10.90;90.30;;;;;;5029872;28;20063;-63
2024/03/15 07:20:41;;;;;;;7.10;3.55;;;11.00;90.10;;;;;;5031267;28;20034;-63
2024/03/15 07:23:06;;;;;;;7.43;3.42;;;11.00;89.80;;;;;;5038116;28;20033;-63
2024/03/15 07:25:32;;;;;;;5.90;3.10;;;11.00;89.70;;;;;;5034453;28;20029;-63
2024/03/15 07:27:58;;;;;;;5.93;3.00;;;11.10;89.60;;;;;;5030225;28;20095;-63
2024/03/15 07:30:24;;;;;;;4.90;2.83;;;11.10;89.50;;;;;;5031454;28;20036;-63
2024/03/15 07:32:51;;;;;;;6.00;3.28;;;11.10;89.50;;;;;;5033448;28;20431;-62
2024/03/15 07:35:17;;;;;;;5.93;3.30;;;11.20;89.50;;;;;;5035152;28;20025;-64
2024/03/15 07:37:45;;;;;;;6.20;3.47;;;11.30;89.60;;;;;;5039720;28;20026;-63
2024/03/15 07:40:10;;;;;;;6.70;3.35;;;11.30;89.40;;;;;;5038157;28;20029;-63
2024/03/15 07:42:36;;;;;;;6.47;2.75;;;11.40;89.10;;;;;;5037104;28;20057;-63
2024/03/15 07:45:04;;;;;;;6.45;3.70;;;11.50;88.90;;;;;;5033172;28;20121;-62
2024/03/15 07:47:29;;;;;;;4.13;2.55;;;11.50;88.70;;;;;;5033492;28;20034;-63
2024/03/15 07:49:55;;;;;;;6.10;3.33;;;11.50;88.70;;;;;;5032581;28;20093;-65
2024/03/15 07:52:20;;;;;;;6.35;3.22;;;11.50;88.90;;;;;;5034269;28;20029;-65
2024/03/15 07:54:46;;;;;;;6.75;3.13;;;11.50;88.60;;;;;;5030599;28;20060;-64
2024/03/15 07:57:12;;;;;;;6.75;3.30;;;11.50;88.70;;;;;;5040028;28;20052;-63
2024/03/15 07:59:38;;;;;;;5.90;2.88;;;11.60;88.70;;;;;;5048639;28;20102;-63
2024/03/15 08:02:04;;;;;;;6.53;3.17;;;11.60;88.30;;;;;;5041508;28;20047;-63
2024/03/15 08:04:30;;;;;;;5.70;3.25;;;11.70;88.50;;;;;;5039261;28;20048;-63
2024/03/15 08:06:56;;;;;;;5.78;3.00;;;11.80;88.60;;;;;;5031633;28;20021;-63
2024/03/15 08:09:23;;;;;;;6.30;3.30;;;11.80;87.80;;;;;;5030680;28;20465;-64
2024/03/15 08:11:49;;;;;;;6.60;2.97;;;12.00;87.90;;;;;;5030892;28;20021;-63
2024/03/15 08:14:15;;;;;;;5.82;3.15;;;12.20;87.90;;;;;;5044531;28;20037;-64
2024/03/15 08:16:41;;;;;;;5.28;2.88;;;12.40;87.80;;;;;;5032488;28;20132;-64
2024/03/15 08:19:08;;;;;;;5.63;2.97;;;12.70;86.30;;;;;;5037016;28;20029;-64
2024/03/15 08:21:36;;;;;;;4.43;2.58;;;13.00;84.90;;;;;;5040493;28;20034;-63
2024/03/15 08:24:04;;;;;;;7.80;2.90;;;13.10;84.90;;;;;;5042157;28;20024;-66
2024/03/15 08:26:31;;;;;;;6.45;2.83;;;13.60;85.00;;;;;;5029075;28;20033;-63
2024/03/15 08:28:57;;;;;;;6.80;2.78;;;14.00;83.30;;;;;;5032403;28;20044;-63
2024/03/15 08:31:22;;;;;;;6.85;2.30;;;14.40;82.30;;;;;;5043941;28;20127;-63
2024/03/15 08:33:48;;;;;;;5.30;2.55;;;14.30;81.90;;;;;;5032643;28;20085;-63
2024/03/15 08:36:13;;;;;;;4.82;2.55;;;14.10;82.70;;;;;;5029386;28;20037;-64
2024/03/15 08:38:40;;;;;;;3.95;2.58;;;14.00;82.10;;;;;;5033488;28;20167;-63
2024/03/15 08:41:06;;;;;;;3.97;2.45;;;13.70;82.70;;;;;;5029708;28;20108;-63
2024/03/15 08:43:32;;;;;;;5.57;2.75;;;13.70;83.20;;;;;;5028592;28;20191;-64
2024/03/15 08:45:58;;;;;;;5.05;2.55;;;13.50;83.90;;;;;;5036844;28;20107;-63
2024/03/15 08:48:24;;;;;;;5.20;2.55;;;13.20;84.10;;;;;;5034812;28;20527;-63
2024/03/15 08:50:50;;;;;;;4.32;2.35;;;13.10;84.60;;;;;;5046158;28;20048;-63
2024/03/15 08:53:16;;;;;;;5.35;2.40;;;13.00;85.30;;;;;;5043988;28;20377;-64
2024/03/15 08:55:42;;;;;;;6.25;2.65;;;13.00;85.60;;;;;;5040851;28;20075;-64
2024/03/15 08:58:08;;;;;;;5.18;2.83;;;13.00;85.70;;;;;;5048544;28;20314;-66
2024/03/15 09:00:34;;;;;;;6.85;2.85;;;13.10;85.80;;;;;;5038873;28;20350;-64
2024/03/15 09:02:59;;;;;;;6.22;2.85;;;13.00;85.70;;;;;;5034648;28;20029;-63
2024/03/15 09:05:24;;;;;;;5.05;2.63;;;12.90;85.70;;;;;;5031890;28;20084;-64
2024/03/15 09:07:50;;;;;;;4.93;2.42;;;12.80;86.10;;;;;;5028373;28;20117;-64
2024/03/15 09:10:16;;;;;;;4.75;2.47;;;12.80;85.90;;;;;;5033576;28;20403;-65
2024/03/15 09:12:45;;;;;;;4.38;2.03;;;12.80;86.40;;;;;;5030254;28;20055;-64
2024/03/15 09:15:14;;;;;;;5.28;2.75;;;12.80;86.60;;;;;;5033484;28;20029;-64
2024/03/15 09:17:40;;;;;;;5.05;2.75;;;12.70;86.60;;;;;;5033886;28;20022;-63
2024/03/15 09:20:32;;;;;;;4.93;2.20;;;12.60;86.80;;;;;;5042109;28;20102;-64
2024/03/15 09:22:57;;;;;;;4.68;2.83;;;12.50;87.20;;;;;;5035498;28;20055;-64
2024/03/15 09:25:25;;;;;;;6.00;2.90;;;12.40;87.40;;;;;;5049672;28;20028;-65
2024/03/15 09:27:54;;;;;;;4.57;2.47;;;12.40;87.90;;;;;;5035200;28;20096;-64
2024/03/15 09:30:26;;;;;;;5.45;2.53;;;12.20;88.90;;;;;;5031721;28;20037;-66
2024/03/15 09:32:53;;;;;;;4.60;2.63;;;12.10;89.70;;;;;;5029481;28;20415;-64
2024/03/15 09:35:19;;;;;;;4.25;2.40;;;11.90;91.30;;;;;;5028246;28;20024;-63
2024/03/15 09:37:51;;;;;;;5.35;2.55;;;11.70;92.50;;;;;;5048264;28;20440;-64
2024/03/15 09:40:18;;;;;;;5.47;2.58;;;11.60;93.10;;;;;;5030352;28;20507;-64
2024/03/15 09:42:47;;;;;;;6.07;3.03;;;11.60;93.60;;;;;;5037982;28;20052;-64
2024/03/15 09:45:16;;;;;;;7.68;2.70;;;11.50;93.80;;;;;;5032138;28;20448;-63
2024/03/15 09:47:43;;;;;;;7.40;2.92;;;11.50;94.00;;;;;;5041356;28;20021;-64
2024/03/15 09:50:16;;;;;;;6.20;2.80;;;11.30;94.50;;;;;;5040995;28;20199;-64
2024/03/15 09:52:42;;;;;;;4.72;2.65;;;11.30;94.90;;;;;;5035884;28;20057;-64
2024/03/15 09:55:22;;;;;;;7.60;3.20;;;11.20;95.30;;;;;;5028475;28;20138;-64
2024/03/15 09:57:49;;;;;;;6.60;3.63;;;11.20;95.60;;;;;;5040344;28;20484;-64
2024/03/15 10:00:23;;;;;;;6.65;2.65;;;11.40;96.00;;;;;;5037933;28;20069;-64
2024/03/15 10:02:52;;;;;;;5.03;2.70;;;11.50;96.00;;;;;;5030946;28;20033;-64
2024/03/15 10:05:22;;;;;;;7.68;3.67;;;11.70;95.80;;;;;;5039525;28;20033;-64
2024/03/15 10:07:51;;;;;;;5.93;3.10;;;11.80;95.70;;;;;;5035859;28;20086;-64
2024/03/15 10:10:18;;;;;;;8.18;3.20;;;11.90;95.50;;;;;;5029268;28;20607;-64
2024/03/15 10:12:45;;;;;;;4.97;2.58;;;12.00;94.90;;;;;;5034304;28;20040;-64
2024/03/15 10:15:12;;;;;;;5.00;2.90;;;12.10;94.60;;;;;;5047412;28;20033;-65
2024/03/15 10:17:43;;;;;;;5.90;2.95;;;12.00;94.40;;;;;;5040184;28;20348;-64
2024/03/15 10:20:17;;;;;;;6.15;3.20;;;12.00;94.80;;;;;;5035251;28;20029;-64
2024/03/15 10:22:48;;;;;;;5.00;2.85;;;11.90;94.80;;;;;;5035295;28;20445;-64
2024/03/15 10:25:16;;;;;;;6.68;2.50;;;11.90;94.40;;;;;;5042785;28;20421;-65
2024/03/15 10:27:45;;;;;;;5.30;2.78;;;12.00;94.70;;;;;;5034464;28;20120;-64
2024/03/15 10:30:17;;;;;;;5.35;2.80;;;12.30;94.90;;;;;;5046501;28;20059;-65
2024/03/15 10:32:46;;;;;;;4.78;2.45;;;12.30;94.40;;;;;;5037513;28;20151;-64
2024/03/15 10:35:13;;;;;;;5.30;2.95;;;12.40;94.00;;;;;;5033648;28;20037;-65
2024/03/15 10:37:40;;;;;;;5.05;2.92;;;12.50;94.10;;;;;;5036937;28;20120;-64
2024/03/15 10:40:12;;;;;;;5.85;2.80;;;12.40;93.60;;;;;;5034375;28;20028;-64
2024/03/15 10:42:41;;;;;;;5.57;2.90;;;12.40;93.80;;;;;;5035520;28;20055;-65
2024/03/15 10:45:11;;;;;;;4.63;2.42;;;12.40;93.80;;;;;;5030955;28;20029;-64
2024/03/15 10:47:38;;;;;;;5.20;2.47;;;12.50;94.00;;;;;;5031808;28;20030;-64
2024/03/15 10:50:05;;;;;;;5.50;2.58;;;12.70;94.00;;;;;;5040952;28;20107;-64
2024/03/15 10:52:32;;;;;;;5.00;2.90;;;12.70;92.70;;;;;;5032864;28;20056;-65
2024/03/15 10:54:59;;;;;;;6.07;2.47;;;12.60;92.30;;;;;;5031298;28;20385;-64
2024/03/15 10:57:25;;;;;;;4.90;2.58;;;12.70;93.10;;;;;;5026081;28;20089;-64
2024/03/15 10:59:51;;;;;;;5.50;2.10;;;12.90;92.80;;;;;;5027498;28;20097;-64
2024/03/15 11:02:17;;;;;;;4.40;2.67;;;13.40;91.80;;;;;;5036093;28;20032;-64
2024/03/15 11:04:42;;;;;;;3.88;2.30;;;13.30;90.60;;;;;;5032631;28;20041;-64
2024/03/15 11:07:08;;;;;;;4.47;2.55;;;13.10;91.40;;;;;;5037477;28;20129;-65
2024/03/15 11:09:35;;;;;;;5.45;2.50;;;13.10;91.80;;;;;;5027227;28;20074;-65
2024/03/15 11:12:02;;;;;;;5.70;2.65;;;13.10;91.80;;;;;;5026582;28;20049;-65
2024/03/15 11:14:32;;;;;;;8.57;2.83;;;12.80;91.70;;;;;;5033550;28;20121;-65
2024/03/15 11:17:03;;;;;;;3.85;2.58;;;12.80;92.50;;;;;;5034329;28;20077;-65
2024/03/15 11:19:29;;;;;;;4.32;2.90;;;12.70;92.50;;;;;;5032208;28;20431;-65
2024/03/15 11:22:04;;;;;;;6.57;2.67;;;12.60;92.70;;;;;;5036735;28;20031;-65
2024/03/15 11:24:39;;;;;;;7.05;3.00;;;12.60;92.90;;;;;;5033668;28;20377;-64
2024/03/15 11:27:04;;;;;;;4.43;2.50;;;12.60;92.60;;;;;;5029443;28;20037;-64
2024/03/15 11:29:35;;;;;;;5.45;3.05;;;12.50;92.90;;;;;;5036381;28;20423;-64
2024/03/15 11:32:00;;;;;;;4.55;2.67;;;12.50;92.90;;;;;;5030478;28;20390;-65
2024/03/15 11:34:26;;;;;;;4.60;2.92;;;12.70;93.10;;;;;;5031945;28;20041;-65
2024/03/15 11:36:51;;;;;;;6.22;3.17;;;12.80;92.50;;;;;;5033580;28;20029;-65
2024/03/15 11:39:17;;;;;;;5.68;3.30;;;13.10;92.20;;;;;;5031827;28;20363;-65
2024/03/15 11:41:43;;;;;;;5.43;3.05;;;13.30;90.90;;;;;;5034016;28;20034;-66
2024/03/15 11:44:09;;;;;;;3.88;2.53;;;13.60;91.40;;;;;;5034166;28;20040;-65
2024/03/15 11:46:34;;;;;;;5.18;2.92;;;13.70;89.80;;;;;;5032238;28;20025;-65
2024/03/15 11:49:03;;;;;;;5.57;2.65;;;13.70;90.20;;;;;;5030134;28;20036;-65
2024/03/15 11:51:28;;;;;;;5.53;2.53;;;14.10;88.90;;;;;;5014414;28;20174;-64
2024/03/15 11:53:54;;;;;;;4.78;2.60;;;14.40;88.10;;;;;;5031828;28;20329;-64
2024/03/15 11:56:21;;;;;;;4.03;2.40;;;14.30;87.10;;;;;;5039084;28;20409;-65
2024/03/15 11:58:48;;;;;;;4.97;2.08;;;14.30;87.20;;;;;;5027331;28;20025;-65
2024/03/15 12:01:14;;;;;;;4.28;2.50;;;14.20;87.60;;;;;;5035252;28;20151;-65
2024/03/15 12:03:40;;;;;;;3.53;1.98;;;14.50;87.00;;;;;;5032993;28;20034;-65
2024/03/15 12:06:07;;;;;;;4.93;1.98;;;14.30;87.20;;;;;;5026025;28;20060;-66
2024/03/15 12:08:32;;;;;;;4.70;2.33;;;14.20;86.40;;;;;;5027277;28;20151;-64
2024/03/15 12:10:58;;;;;;;4.38;2.17;;;14.00;87.10;;;;;;5035792;28;20026;-64
2024/03/15 12:13:25;;;;;;;4.50;2.03;;;13.80;87.60;;;;;;5027719;28;20107;-64
2024/03/15 12:15:52;;;;;;;4.22;2.13;;;13.60;87.10;;;;;;5037976;28;20041;-65
2024/03/15 12:18:22;;;;;;;3.75;2.10;;;13.60;88.00;;;;;;5034290;28;20139;-67
2024/03/15 12:20:52;;;;;;;2.72;1.80;;;13.50;88.00;;;;;;5038820;28;20075;-64
2024/03/15 12:23:19;;;;;;;5.00;2.47;;;13.50;88.30;;;;;;5043839;28;20488;-65
2024/03/15 12:25:46;;;;;;;4.25;2.50;;;13.60;88.40;;;;;;5041814;28;20035;-64
2024/03/15 12:28:13;;;;;;;4.68;2.25;;;13.70;88.30;;;;;;5042565;28;20351;-65
2024/03/15 12:30:42;;;;;;;4.18;2.13;;;13.70;86.90;;;;;;5024861;28;20393;-64
2024/03/15 12:33:08;;;;;;;4.45;2.35;;;13.80;86.80;;;;;;5044261;28;20029;-64
2024/03/15 12:35:34;;;;;;;3.80;2.10;;;13.70;85.40;;;;;;5034364;28;20029;-65
2024/03/15 12:38:00;;;;;;;3.17;1.83;;;13.70;84.60;;;;;;5036273;28;20423;-64
2024/03/15 12:40:26;;;;;;;3.22;1.80;;;13.70;85.10;;;;;;5035194;28;20181;-66
2024/03/15 12:42:52;;;;;;;4.30;2.33;;;13.70;84.50;;;;;;5038801;28;20056;-64
2024/03/15 12:45:17;;;;;;;4.35;1.92;;;13.60;85.30;;;;;;5042607;28;20073;-64
2024/03/15 12:47:43;;;;;;;2.40;1.55;;;13.60;85.90;;;;;;5034327;28;20030;-64
2024/03/15 12:50:16;;;;;;;3.58;2.05;;;13.50;86.40;;;;;;5029708;28;20095;-64
2024/03/15 12:52:42;;;;;;;4.03;1.65;;;13.50;86.90;;;;;;5032950;28;20086;-64